Time;durP1;ratioP1;P1;durP2;ratioP2;P2;SDS_P1;SDS_P2;PMS_P1;PMS_P2;Temp;Humidity;BMP_temperature;BMP_pressure;BME280_temperature;BME280_humidity;BME280_pressure;Samples;Min_cycle;Max_cycle;Signal;HPM_P1;HPM_P2
2021/01/16 00:01:04;;;;;;;28.40;15.73;;;2.90;99.90;;;;;;5012622;28;20440;-54
2021/01/16 00:03:30;;;;;;;30.08;16.02;;;1.00;99.90;;;;;;5008143;28;20419;-54
2021/01/16 00:05:59;;;;;;;28.70;15.25;;;0.90;99.90;;;;;;5013284;28;20700;-54
2021/01/16 00:08:27;;;;;;;32.25;14.48;;;3.30;99.90;;;;;;5009887;28;20741;-54
2021/01/16 00:10:55;;;;;;;29.45;15.25;;;0.90;99.90;;;;;;5012401;28;20823;-54
2021/01/16 00:13:23;;;;;;;28.73;14.82;;;1.80;99.90;;;;;;5011843;28;20417;-54
2021/01/16 00:15:49;;;;;;;26.10;15.15;;;0.90;99.90;;;;;;5010650;28;20440;-54
2021/01/16 00:18:20;;;;;;;28.20;15.30;;;3.90;99.90;;;;;;5011606;28;20381;-54
2021/01/16 00:20:52;;;;;;;34.42;16.65;;;0.80;99.90;;;;;;5011703;28;20420;-54
2021/01/16 00:23:20;;;;;;;29.23;15.30;;;0.80;99.90;;;;;;5010219;28;20396;-54
2021/01/16 00:25:46;;;;;;;38.22;16.23;;;3.10;99.90;;;;;;5012480;28;20389;-54
2021/01/16 00:28:29;;;;;;;30.80;16.58;;;0.90;99.90;;;;;;5012394;28;20512;-54
2021/01/16 00:30:56;;;;;;;31.13;16.52;;;0.90;99.90;;;;;;5010552;28;20508;-54
2021/01/16 00:33:26;;;;;;;30.92;16.25;;;1.00;99.90;;;;;;5010906;28;20480;-54
2021/01/16 00:35:54;;;;;;;30.42;15.50;;;1.90;99.90;;;;;;5011569;28;20503;-54
2021/01/16 00:38:21;;;;;;;30.33;16.30;;;1.60;99.90;;;;;;5010405;28;20397;-54
2021/01/16 00:40:47;;;;;;;33.70;17.02;;;3.00;99.90;;;;;;5012021;28;20409;-54
2021/01/16 00:43:14;;;;;;;31.90;16.77;;;2.20;99.90;;;;;;5010011;28;20718;-54
2021/01/16 00:45:47;;;;;;;37.53;16.80;;;1.00;99.90;;;;;;5011616;28;20460;-54
2021/01/16 00:48:18;;;;;;;32.67;16.70;;;1.00;99.90;;;;;;5010537;28;20401;-53
2021/01/16 00:50:48;;;;;;;35.75;16.98;;;1.00;99.90;;;;;;5010283;28;20883;-54
2021/01/16 00:53:14;;;;;;;33.00;15.68;;;1.10;99.90;;;;;;5010397;28;20399;-54
2021/01/16 00:55:40;;;;;;;33.80;16.33;;;3.20;99.90;;;;;;5011129;28;20882;-54
2021/01/16 00:58:10;;;;;;;33.38;16.42;;;1.00;99.90;;;;;;5010461;28;20791;-54
2021/01/16 01:00:37;;;;;;;34.88;17.15;;;1.10;99.90;;;;;;5010648;28;20936;-54
2021/01/16 01:03:03;;;;;;;30.17;16.02;;;1.10;99.90;;;;;;5009895;28;20400;-54
2021/01/16 01:05:28;;;;;;;32.70;16.83;;;3.60;99.90;;;;;;5009998;28;20384;-54
2021/01/16 01:07:54;;;;;;;31.97;15.27;;;3.20;99.90;;;;;;5010151;28;20420;-54
2021/01/16 01:10:29;;;;;;;32.57;16.40;;;1.10;99.90;;;;;;5010525;28;20478;-54
2021/01/16 01:12:55;;;;;;;35.50;16.60;;;1.00;99.90;;;;;;5009311;28;20839;-54
2021/01/16 01:15:21;;;;;;;32.87;16.27;;;1.00;99.90;;;;;;5010163;28;20411;-54
2021/01/16 01:17:53;;;;;;;34.70;16.80;;;1.60;99.90;;;;;;5011404;28;20416;-54
2021/01/16 01:20:21;;;;;;;33.15;16.70;;;1.00;99.90;;;;;;5008985;28;20447;-54
2021/01/16 01:22:49;;;;;;;29.55;16.75;;;2.40;99.90;;;;;;5010961;28;20380;-54
2021/01/16 01:25:16;;;;;;;35.78;15.65;;;1.00;99.90;;;;;;5009437;28;20570;-54
2021/01/16 01:27:43;;;;;;;33.30;16.90;;;1.00;99.90;;;;;;5010739;28;20381;-54
2021/01/16 01:30:09;;;;;;;34.85;17.92;;;2.90;99.90;;;;;;5011295;28;20389;-54
2021/01/16 01:32:35;;;;;;;33.05;16.60;;;0.80;99.90;;;;;;5007935;28;20412;-54
2021/01/16 01:35:01;;;;;;;32.70;16.40;;;0.90;99.90;;;;;;5010268;28;20407;-54
2021/01/16 01:37:27;;;;;;;34.75;16.65;;;0.90;99.90;;;;;;5009364;28;20424;-54
2021/01/16 01:39:53;;;;;;;35.60;17.73;;;1.60;99.90;;;;;;5010648;28;20428;-54
2021/01/16 01:42:19;;;;;;;35.08;17.02;;;1.10;99.90;;;;;;5007025;28;20851;-54
2021/01/16 01:44:47;;;;;;;30.05;16.30;;;3.00;99.90;;;;;;5011416;28;20385;-54
2021/01/16 01:47:14;;;;;;;36.42;17.60;;;1.10;99.90;;;;;;5009192;28;20424;-54
2021/01/16 01:49:40;;;;;;;35.47;17.40;;;3.50;99.90;;;;;;5008735;28;20400;-54
2021/01/16 01:52:08;;;;;;;29.85;15.23;;;3.90;99.90;;;;;;5010944;28;20389;-54
2021/01/16 01:54:35;;;;;;;34.67;17.35;;;1.80;99.90;;;;;;5007636;28;20423;-54
2021/01/16 01:57:11;;;;;;;33.75;17.00;;;1.20;99.90;;;;;;5010348;28;20376;-54
2021/01/16 01:59:37;;;;;;;33.78;16.33;;;1.20;99.90;;;;;;5009541;28;20969;-54
2021/01/16 02:02:04;;;;;;;33.17;17.00;;;2.40;99.90;;;;;;5009507;28;20429;-54
2021/01/16 02:04:32;;;;;;;34.75;16.67;;;3.70;99.90;;;;;;5009381;28;20444;-55
2021/01/16 02:07:21;;;;;;;36.43;16.70;;;1.20;99.90;;;;;;5009326;28;20405;-54
2021/01/16 02:09:48;;;;;;;36.15;16.95;;;3.90;99.90;;;;;;5009337;28;20909;-54
2021/01/16 02:12:13;;;;;;;31.98;15.45;;;2.10;99.90;;;;;;5009527;28;20404;-54
2021/01/16 02:14:40;;;;;;;38.57;18.17;;;1.00;99.90;;;;;;5009631;28;20778;-54
2021/01/16 02:17:07;;;;;;;33.53;16.52;;;3.10;99.90;;;;;;5008864;28;20400;-54
2021/01/16 02:20:04;;;;;;;34.20;17.58;;;1.10;99.90;;;;;;5008842;28;20392;-54
2021/01/16 02:22:34;;;;;;;31.83;16.23;;;1.10;99.90;;;;;;5007819;28;20417;-54
2021/01/16 02:25:13;;;;;;;34.00;17.42;;;3.60;99.90;;;;;;5008864;28;20408;-54
2021/01/16 02:27:51;;;;;;;37.20;17.03;;;0.90;99.90;;;;;;5009330;28;20427;-54
2021/01/16 02:30:19;;;;;;;35.33;16.70;;;1.00;99.90;;;;;;5008398;28;20427;-54
2021/01/16 02:32:49;;;;;;;35.10;16.40;;;0.90;99.90;;;;;;5008413;28;20409;-54
2021/01/16 02:35:17;;;;;;;33.60;16.77;;;0.90;99.90;;;;;;5008397;28;20878;-54
2021/01/16 02:37:54;;;;;;;36.88;17.40;;;1.00;99.90;;;;;;5009641;28;20723;-54
2021/01/16 02:40:22;;;;;;;33.53;17.20;;;1.00;99.90;;;;;;5008696;28;20425;-54
2021/01/16 02:43:33;;;;;;;35.97;17.40;;;3.40;99.90;;;;;;5008412;28;20411;-54
2021/01/16 02:46:23;;;;;;;34.43;15.90;;;1.00;99.90;;;;;;4997294;28;20424;-54
2021/01/16 02:49:18;;;;;;;34.00;17.17;;;1.00;99.90;;;;;;5009007;28;20430;-54
2021/01/16 02:52:03;;;;;;;39.20;17.98;;;1.00;99.90;;;;;;5009433;28;20408;-54
2021/01/16 02:54:35;;;;;;;32.38;16.50;;;1.10;99.90;;;;;;5008110;28;20397;-54
2021/01/16 02:57:03;;;;;;;35.05;17.00;;;1.00;99.90;;;;;;5008943;28;20455;-54
2021/01/16 02:59:33;;;;;;;33.97;16.98;;;0.90;99.90;;;;;;5008818;28;20395;-54
2021/01/16 03:02:00;;;;;;;36.05;17.10;;;1.20;99.90;;;;;;5008209;28;20436;-54
2021/01/16 03:04:26;;;;;;;36.20;17.75;;;3.90;99.90;;;;;;5008914;28;20442;-54
2021/01/16 03:06:52;;;;;;;35.30;16.93;;;1.00;99.90;;;;;;5008202;28;20397;-54
2021/01/16 03:09:18;;;;;;;39.67;17.63;;;0.90;99.90;;;;;;5008075;28;20491;-54
2021/01/16 03:11:45;;;;;;;35.03;17.17;;;0.90;99.90;;;;;;5009221;28;20405;-54
2021/01/16 03:14:12;;;;;;;32.80;16.20;;;0.80;99.90;;;;;;5006727;28;20429;-54
2021/01/16 03:16:56;;;;;;;39.07;17.33;;;3.30;99.90;;;;;;5008735;28;20873;-54
2021/01/16 03:19:28;;;;;;;34.00;16.60;;;3.40;99.90;;;;;;5007139;28;20397;-54
2021/01/16 03:21:53;;;;;;;33.78;16.30;;;1.00;99.90;;;;;;5009445;28;20420;-54
2021/01/16 03:24:19;;;;;;;36.17;17.17;;;1.00;99.90;;;;;;5007450;28;20396;-53
2021/01/16 03:26:44;;;;;;;36.10;17.77;;;1.00;99.90;;;;;;5009347;28;20922;-55
2021/01/16 03:29:11;;;;;;;34.03;16.50;;;1.10;99.90;;;;;;5007590;28;20397;-54
2021/01/16 03:31:37;;;;;;;30.77;16.52;;;3.10;99.90;;;;;;5008565;28;20393;-54
2021/01/16 03:34:02;;;;;;;34.27;16.80;;;1.00;99.90;;;;;;5007847;28;20761;-54
2021/01/16 03:36:28;;;;;;;34.95;17.00;;;3.60;99.90;;;;;;5008406;28;20389;-54
2021/01/16 03:38:54;;;;;;;31.08;16.52;;;3.50;99.90;;;;;;5010180;28;20393;-54
2021/01/16 03:41:19;;;;;;;35.57;17.70;;;3.90;99.90;;;;;;5012327;28;20409;-53
2021/01/16 03:43:45;;;;;;;32.88;16.23;;;1.10;99.90;;;;;;5013093;28;20900;-54
2021/01/16 03:46:11;;;;;;;35.05;16.77;;;1.40;99.90;;;;;;5011560;28;20408;-54
2021/01/16 03:48:36;;;;;;;35.13;17.00;;;0.90;99.90;;;;;;5011412;28;20381;-54
2021/01/16 03:51:03;;;;;;;34.13;17.40;;;2.60;99.90;;;;;;5011857;28;20413;-54
2021/01/16 03:53:28;;;;;;;36.17;17.30;;;0.90;99.90;;;;;;5012168;28;20524;-54
2021/01/16 03:55:54;;;;;;;32.43;16.80;;;0.80;99.90;;;;;;5011077;28;20428;-54
2021/01/16 03:58:19;;;;;;;38.45;17.88;;;3.20;99.90;;;;;;5011652;28;20455;-54
2021/01/16 04:00:45;;;;;;;33.07;16.83;;;0.80;99.90;;;;;;5011256;28;20424;-54
2021/01/16 04:03:10;;;;;;;33.17;16.37;;;0.70;99.90;;;;;;5012656;28;20385;-54
2021/01/16 04:05:36;;;;;;;33.47;15.75;;;0.70;99.90;;;;;;5010551;28;20396;-55
2021/01/16 04:08:02;;;;;;;34.00;17.00;;;0.80;99.90;;;;;;5012605;28;20899;-54
2021/01/16 04:10:27;;;;;;;32.60;16.10;;;0.80;99.90;;;;;;5010187;28;20411;-53
2021/01/16 04:12:53;;;;;;;35.10;16.65;;;2.60;99.90;;;;;;5012407;28;20413;-54
2021/01/16 04:15:19;;;;;;;32.90;16.03;;;3.30;99.90;;;;;;5010184;28;20400;-53
2021/01/16 04:17:44;;;;;;;30.67;16.70;;;0.80;99.90;;;;;;5011804;28;20945;-54
2021/01/16 04:20:10;;;;;;;33.38;16.80;;;0.80;99.90;;;;;;5012382;28;20381;-54
2021/01/16 04:22:39;;;;;;;34.67;16.25;;;0.70;99.90;;;;;;5009954;28;21090;-54
2021/01/16 04:25:06;;;;;;;31.25;15.60;;;0.60;99.90;;;;;;5011664;28;20479;-53
2021/01/16 04:27:33;;;;;;;31.80;16.83;;;0.70;99.90;;;;;;5010318;28;20446;-53
2021/01/16 04:30:03;;;;;;;34.60;16.60;;;0.80;99.90;;;;;;5012182;28;20391;-54
2021/01/16 04:32:28;;;;;;;32.72;16.73;;;1.40;99.90;;;;;;5009874;28;20420;-53
2021/01/16 04:34:55;;;;;;;35.47;16.90;;;3.30;99.90;;;;;;5012298;28;20393;-53
2021/01/16 04:37:20;;;;;;;36.70;17.20;;;1.00;99.90;;;;;;5009774;28;20406;-53
2021/01/16 04:39:46;;;;;;;30.33;16.30;;;0.80;99.90;;;;;;5011586;28;20843;-53
2021/01/16 04:42:13;;;;;;;34.47;17.20;;;0.80;99.90;;;;;;5010154;28;20427;-53
2021/01/16 04:44:43;;;;;;;31.85;15.43;;;3.50;99.90;;;;;;5011127;28;20392;-53
2021/01/16 04:47:17;;;;;;;34.67;15.77;;;0.80;99.90;;;;;;5012521;28;20455;-53
2021/01/16 04:49:43;;;;;;;36.13;15.85;;;0.80;99.90;;;;;;5009512;28;20905;-53
2021/01/16 04:52:10;;;;;;;35.28;16.80;;;0.90;99.90;;;;;;5010529;28;20396;-53
2021/01/16 04:54:37;;;;;;;31.77;15.80;;;1.40;99.90;;;;;;5010518;28;20452;-53
2021/01/16 04:57:03;;;;;;;32.45;16.27;;;3.30;99.90;;;;;;5010550;28;20535;-53
2021/01/16 04:59:30;;;;;;;32.47;16.83;;;1.00;99.90;;;;;;5010714;28;20841;-53
2021/01/16 05:01:57;;;;;;;32.45;17.13;;;0.90;99.90;;;;;;5010053;28;20487;-54
2021/01/16 05:04:24;;;;;;;35.40;16.77;;;0.80;99.90;;;;;;5010699;28;20420;-54
2021/01/16 05:06:51;;;;;;;35.22;16.95;;;0.80;99.90;;;;;;5011685;28;20459;-53
2021/01/16 05:09:20;;;;;;;35.72;16.60;;;0.80;99.90;;;;;;5009560;28;20505;-53
2021/01/16 05:12:23;;;;;;;35.03;16.97;;;3.10;99.90;;;;;;5011144;28;20380;-51
2021/01/16 05:15:09;;;;;;;34.30;16.45;;;0.90;99.90;;;;;;5003963;28;20422;-51
2021/01/16 05:17:47;;;;;;;35.70;16.17;;;0.90;99.90;;;;;;4999752;28;20391;-51
2021/01/16 05:20:14;;;;;;;33.60;16.95;;;0.80;99.90;;;;;;4991651;28;20402;-51
2021/01/16 05:22:40;;;;;;;34.10;16.80;;;3.00;99.90;;;;;;4991217;28;20864;-50
2021/01/16 05:25:07;;;;;;;32.63;16.90;;;1.10;99.90;;;;;;5008221;28;20388;-54
2021/01/16 05:27:35;;;;;;;37.50;16.63;;;1.00;99.90;;;;;;5010758;28;20388;-53
2021/01/16 05:30:09;;;;;;;28.08;15.02;;;1.90;99.90;;;;;;5011555;28;20389;-54
2021/01/16 05:32:35;;;;;;;35.75;17.35;;;1.00;99.90;;;;;;5010196;28;20976;-53
2021/01/16 05:35:22;;;;;;;35.10;16.55;;;1.00;99.90;;;;;;5011053;28;20479;-53
2021/01/16 05:37:49;;;;;;;34.75;16.38;;;1.00;99.90;;;;;;5010679;28;20400;-53
2021/01/16 05:40:16;;;;;;;34.40;17.10;;;0.80;99.90;;;;;;5010404;28;20409;-54
2021/01/16 05:42:42;;;;;;;34.70;17.48;;;0.80;99.90;;;;;;5010276;28;20411;-53
2021/01/16 05:45:10;;;;;;;31.83;15.52;;;1.50;99.90;;;;;;5008207;28;20468;-53
2021/01/16 05:47:41;;;;;;;34.67;16.90;;;0.70;99.90;;;;;;5010344;28;20511;-53
2021/01/16 05:50:10;;;;;;;37.33;17.10;;;3.10;99.90;;;;;;5011181;28;20396;-53
2021/01/16 05:52:40;;;;;;;36.88;16.92;;;0.70;99.90;;;;;;5010335;28;20379;-53
2021/01/16 05:55:07;;;;;;;30.30;16.23;;;0.70;99.90;;;;;;5010742;28;20385;-54
2021/01/16 05:57:34;;;;;;;32.20;16.87;;;0.70;99.90;;;;;;5010349;28;20406;-53
2021/01/16 06:00:01;;;;;;;37.87;17.70;;;0.60;99.90;;;;;;5010577;28;20435;-53
2021/01/16 06:02:31;;;;;;;33.13;16.77;;;0.60;99.90;;;;;;5006112;28;20470;-53
2021/01/16 06:04:58;;;;;;;31.38;16.13;;;0.60;99.90;;;;;;5002117;28;20397;-53
2021/01/16 06:07:25;;;;;;;32.55;16.23;;;2.50;99.90;;;;;;5003485;28;20431;-53
2021/01/16 06:09:52;;;;;;;34.92;16.95;;;3.40;99.90;;;;;;5007062;28;20454;-53
2021/01/16 06:12:23;;;;;;;33.28;16.48;;;0.70;99.90;;;;;;5007658;28;20400;-53
2021/01/16 06:14:49;;;;;;;35.17;16.23;;;1.10;99.90;;;;;;5008751;28;20409;-53
2021/01/16 06:17:19;;;;;;;36.30;16.27;;;3.20;99.90;;;;;;5003681;28;20398;-54
2021/01/16 06:19:48;;;;;;;34.85;16.75;;;0.80;99.90;;;;;;5009812;28;20811;-54
2021/01/16 06:22:16;;;;;;;37.47;16.23;;;2.80;99.90;;;;;;5006989;28;20426;-53
2021/01/16 06:24:49;;;;;;;34.25;17.10;;;0.80;99.90;;;;;;5003220;28;20377;-54
2021/01/16 06:27:24;;;;;;;34.35;17.20;;;0.90;99.90;;;;;;5011005;28;20396;-54
2021/01/16 06:29:58;;;;;;;33.15;16.70;;;0.90;99.90;;;;;;5009956;28;20396;-54
2021/01/16 06:32:25;;;;;;;32.92;15.93;;;0.80;99.90;;;;;;5009453;28;20479;-53
2021/01/16 06:35:11;;;;;;;33.72;16.63;;;0.70;99.90;;;;;;5010394;28;20393;-53
2021/01/16 06:37:45;;;;;;;35.00;16.60;;;0.60;99.90;;;;;;5009254;28;20879;-53
2021/01/16 06:40:12;;;;;;;30.38;15.70;;;0.90;99.90;;;;;;5009995;28;20724;-54
2021/01/16 06:42:39;;;;;;;31.60;16.88;;;0.70;99.90;;;;;;4996551;28;20383;-54
2021/01/16 06:45:08;;;;;;;31.27;16.63;;;0.90;99.90;;;;;;4990670;28;20378;-54
2021/01/16 06:47:35;;;;;;;30.27;16.70;;;1.00;99.90;;;;;;4989903;28;20391;-53
2021/01/16 06:50:06;;;;;;;29.88;15.75;;;1.10;99.90;;;;;;4990839;28;20383;-54
2021/01/16 06:52:38;;;;;;;30.10;16.10;;;1.10;99.90;;;;;;4998624;28;20468;-53
2021/01/16 06:55:05;;;;;;;34.28;16.08;;;1.10;99.90;;;;;;5007854;28;20403;-53
2021/01/16 06:57:32;;;;;;;31.30;16.02;;;1.10;99.90;;;;;;5004573;28;20401;-53
2021/01/16 07:00:07;;;;;;;31.73;17.00;;;2.20;99.90;;;;;;5007433;28;20466;-54
2021/01/16 07:02:35;;;;;;;34.90;17.63;;;1.10;99.90;;;;;;5003669;28;20984;-53
2021/01/16 07:05:05;;;;;;;31.25;16.20;;;3.20;99.90;;;;;;4998498;28;20385;-54
2021/01/16 07:07:41;;;;;;;32.70;16.73;;;1.20;99.90;;;;;;5009027;28;20392;-54
2021/01/16 07:10:08;;;;;;;31.10;15.70;;;2.90;99.90;;;;;;5009673;28;20426;-54
2021/01/16 07:12:35;;;;;;;34.15;16.80;;;1.20;99.90;;;;;;5008045;28;20770;-53
2021/01/16 07:15:03;;;;;;;31.77;16.65;;;1.20;99.90;;;;;;5008941;28;20470;-54
2021/01/16 07:17:31;;;;;;;33.83;16.20;;;1.20;99.90;;;;;;5011807;28;20428;-54
2021/01/16 07:19:58;;;;;;;34.42;17.30;;;1.10;99.90;;;;;;5007863;28;20398;-54
2021/01/16 07:22:31;;;;;;;32.45;16.88;;;1.20;99.90;;;;;;5008274;28;20413;-53
2021/01/16 07:24:59;;;;;;;36.35;16.90;;;2.50;99.90;;;;;;5013021;28;20395;-54
2021/01/16 07:27:26;;;;;;;31.13;16.20;;;1.20;99.90;;;;;;5011191;28;20965;-53
2021/01/16 07:30:05;;;;;;;31.27;15.68;;;4.10;99.90;;;;;;5014092;28;20730;-54
2021/01/16 07:32:40;;;;;;;29.35;15.50;;;1.30;99.90;;;;;;4999565;28;20404;-53
2021/01/16 07:35:11;;;;;;;31.52;16.17;;;3.70;99.90;;;;;;5010391;28;20799;-53
2021/01/16 07:37:38;;;;;;;35.47;17.63;;;1.30;99.90;;;;;;5009940;28;20878;-53
2021/01/16 07:40:04;;;;;;;31.80;16.08;;;1.20;99.90;;;;;;5010374;28;20397;-53
2021/01/16 07:42:31;;;;;;;37.05;18.27;;;1.10;99.90;;;;;;4997616;28;20968;-53
2021/01/16 07:45:08;;;;;;;36.73;18.30;;;1.10;99.90;;;;;;5002712;28;20394;-53
2021/01/16 07:47:39;;;;;;;34.92;16.55;;;1.10;99.90;;;;;;4996710;28;20393;-53
2021/01/16 07:50:18;;;;;;;37.10;18.13;;;3.40;99.90;;;;;;5010415;28;20388;-53
2021/01/16 07:53:01;;;;;;;30.60;16.73;;;1.10;99.90;;;;;;5012113;28;20911;-54
2021/01/16 07:55:59;;;;;;;29.35;15.43;;;1.10;99.90;;;;;;5007743;28;20400;-53
2021/01/16 07:58:33;;;;;;;35.15;16.80;;;1.00;99.90;;;;;;5004876;28;20423;-53
2021/01/16 08:01:10;;;;;;;33.83;17.35;;;0.80;99.90;;;;;;5007370;28;20888;-53
2021/01/16 08:03:44;;;;;;;31.98;16.98;;;0.80;99.90;;;;;;5006927;28;20405;-54
2021/01/16 08:06:31;;;;;;;32.78;17.02;;;0.90;99.90;;;;;;5008320;28;20397;-53
2021/01/16 08:09:16;;;;;;;30.20;16.45;;;0.80;99.90;;;;;;5012043;28;20404;-54
2021/01/16 08:11:51;;;;;;;37.43;18.50;;;0.80;99.90;;;;;;5011241;28;20396;-53
2021/01/16 08:14:22;;;;;;;35.20;17.57;;;0.70;99.90;;;;;;5011862;28;20404;-54
2021/01/16 08:16:56;;;;;;;31.35;16.65;;;2.30;99.90;;;;;;5011384;28;20431;-54
2021/01/16 08:19:28;;;;;;;31.75;17.52;;;0.90;99.90;;;;;;5010353;28;20441;-53
2021/01/16 08:21:58;;;;;;;34.00;17.10;;;0.80;99.90;;;;;;5012025;28;20426;-53
2021/01/16 08:24:27;;;;;;;36.70;18.92;;;0.70;99.90;;;;;;5008562;28;20401;-53
2021/01/16 08:26:57;;;;;;;32.80;17.88;;;0.70;99.90;;;;;;5011610;28;20392;-53
2021/01/16 08:29:24;;;;;;;36.05;18.83;;;0.70;99.90;;;;;;5011833;28;20778;-54
2021/01/16 08:32:02;;;;;;;38.80;18.42;;;0.90;99.90;;;;;;5009575;28;20455;-53
2021/01/16 08:34:53;;;;;;;41.22;19.13;;;0.90;99.90;;;;;;5005518;28;21121;-53
2021/01/16 08:37:35;;;;;;;38.80;19.30;;;0.70;99.90;;;;;;5008476;28;20392;-53
2021/01/16 08:40:04;;;;;;;38.47;19.25;;;0.60;99.90;;;;;;5010846;28;20396;-53
2021/01/16 08:42:29;;;;;;;38.58;20.17;;;1.80;99.90;;;;;;5010498;28;20448;-53
2021/01/16 08:44:57;;;;;;;36.45;19.42;;;0.70;99.90;;;;;;5010151;28;20451;-54
2021/01/16 08:47:24;;;;;;;37.05;18.77;;;2.60;99.90;;;;;;5003209;28;20896;-53
2021/01/16 08:49:50;;;;;;;35.10;19.03;;;1.00;99.90;;;;;;5009930;28;20429;-54
2021/01/16 08:52:35;;;;;;;63.35;28.60;;;2.60;99.90;;;;;;5005397;28;20403;-54
2021/01/16 08:55:05;;;;;;;42.67;20.15;;;1.00;99.90;;;;;;5001638;28;20426;-53
2021/01/16 08:57:36;;;;;;;35.15;18.88;;;1.00;99.90;;;;;;4999020;28;20401;-53
2021/01/16 09:00:18;;;;;;;35.85;19.05;;;0.90;99.90;;;;;;4996072;28;20390;-54
2021/01/16 09:03:06;;;;;;;35.15;19.30;;;0.90;99.90;;;;;;4990449;28;20425;-53
2021/01/16 09:05:33;;;;;;;39.70;19.73;;;0.90;99.90;;;;;;4998356;28;20748;-53
2021/01/16 09:07:59;;;;;;;37.05;19.73;;;0.90;99.90;;;;;;5010997;28;20876;-53
2021/01/16 09:10:27;;;;;;;36.00;19.00;;;2.90;99.90;;;;;;5008618;28;21001;-54
2021/01/16 09:12:54;;;;;;;39.92;20.67;;;0.90;99.90;;;;;;5005578;28;20409;-53
2021/01/16 09:15:24;;;;;;;36.63;18.50;;;0.80;99.90;;;;;;5002412;28;20381;-54
2021/01/16 09:18:02;;;;;;;33.73;19.47;;;0.60;99.90;;;;;;5006596;28;21745;-53
2021/01/16 09:20:28;;;;;;;45.97;21.98;;;1.00;99.90;;;;;;5006227;28;20397;-54
2021/01/16 09:22:54;;;;;;;34.58;19.13;;;0.60;99.90;;;;;;5008584;28;20389;-53
2021/01/16 09:25:24;;;;;;;35.10;17.87;;;2.90;99.90;;;;;;5006433;28;20824;-53
2021/01/16 09:27:51;;;;;;;33.45;17.85;;;0.70;99.90;;;;;;4996671;28;20776;-53
2021/01/16 09:30:22;;;;;;;35.10;18.58;;;0.70;99.90;;;;;;4999923;28;20389;-53
2021/01/16 09:32:48;;;;;;;32.13;17.38;;;0.70;99.90;;;;;;5000024;28;20484;-53
2021/01/16 09:35:34;;;;;;;34.05;16.58;;;0.60;99.90;;;;;;5002076;28;20418;-53
2021/01/16 09:38:00;;;;;;;34.83;18.30;;;1.50;99.90;;;;;;5004651;28;20441;-53
2021/01/16 09:40:35;;;;;;;31.83;17.23;;;0.70;99.90;;;;;;5005504;28;20399;-53
2021/01/16 09:43:25;;;;;;;30.30;16.83;;;0.30;99.90;;;;;;5001441;28;20462;-53
2021/01/16 09:45:53;;;;;;;35.35;17.85;;;0.30;99.90;;;;;;5000183;28;20388;-53
2021/01/16 09:48:46;;;;;;;31.88;16.23;;;3.10;99.90;;;;;;5003834;28;21291;-53
2021/01/16 09:51:13;;;;;;;31.60;16.92;;;0.20;99.90;;;;;;5007333;28;20497;-53
2021/01/16 09:53:40;;;;;;;33.50;16.83;;;-1.70;99.90;;;;;;4998161;28;20396;-53
2021/01/16 09:56:07;;;;;;;28.25;16.65;;;0.20;99.90;;;;;;4999182;28;20429;-53
2021/01/16 09:58:41;;;;;;;33.00;16.25;;;2.60;99.90;;;;;;5002269;28;20490;-52
2021/01/16 10:01:22;;;;;;;33.13;16.93;;;1.40;99.90;;;;;;5004462;28;20505;-53
2021/01/16 10:03:48;;;;;;;32.50;16.52;;;0.20;99.90;;;;;;5002787;28;20462;-53
2021/01/16 10:06:18;;;;;;;32.25;16.73;;;0.40;99.90;;;;;;5005455;28;20392;-53
2021/01/16 10:08:45;;;;;;;29.58;15.70;;;0.30;99.90;;;;;;5005131;28;20408;-53
2021/01/16 10:11:13;;;;;;;31.83;16.27;;;0.30;99.90;;;;;;5010365;28;21125;-53
2021/01/16 10:13:40;;;;;;;27.75;15.60;;;0.40;99.90;;;;;;5009617;28;20413;-53
2021/01/16 10:16:11;;;;;;;27.67;14.52;;;2.00;99.90;;;;;;5005258;28;20489;-54
2021/01/16 10:18:39;;;;;;;29.73;15.32;;;0.20;99.90;;;;;;5001063;28;20487;-53
2021/01/16 10:21:09;;;;;;;28.88;15.50;;;0.30;99.90;;;;;;5005891;28;20406;-53
2021/01/16 10:23:40;;;;;;;31.75;14.10;;;0.50;99.90;;;;;;5004846;28;20411;-53
2021/01/16 10:26:07;;;;;;;28.73;14.80;;;0.40;99.90;;;;;;5006480;28;20390;-54
2021/01/16 10:28:36;;;;;;;29.17;15.73;;;1.70;99.90;;;;;;5005722;28;20408;-53
2021/01/16 10:31:07;;;;;;;30.02;15.40;;;0.70;99.90;;;;;;5005242;28;20413;-53
2021/01/16 10:33:44;;;;;;;27.73;14.20;;;0.80;99.90;;;;;;5003388;28;20437;-54
2021/01/16 10:36:14;;;;;;;27.73;15.05;;;1.00;99.90;;;;;;5007919;28;20389;-53
2021/01/16 10:38:45;;;;;;;27.95;15.95;;;1.10;99.90;;;;;;5008281;28;20401;-53
2021/01/16 10:41:18;;;;;;;29.95;14.07;;;2.30;99.90;;;;;;5008271;28;20455;-53
2021/01/16 10:43:45;;;;;;;26.95;13.75;;;1.10;99.90;;;;;;5005677;28;20415;-53
2021/01/16 10:46:25;;;;;;;27.95;14.32;;;0.90;99.90;;;;;;5004612;28;20389;-53
2021/01/16 10:48:51;;;;;;;24.38;13.10;;;1.70;99.90;;;;;;5010436;28;20913;-53
2021/01/16 10:51:23;;;;;;;24.42;13.10;;;1.00;99.90;;;;;;5009242;28;20443;-53
2021/01/16 10:53:56;;;;;;;24.70;13.38;;;2.80;99.90;;;;;;5011440;28;20404;-53
2021/01/16 10:56:26;;;;;;;23.80;13.60;;;1.30;99.90;;;;;;5006197;28;20386;-53
2021/01/16 10:59:09;;;;;;;24.60;13.73;;;1.30;99.90;;;;;;5005878;28;20430;-53
2021/01/16 11:01:54;;;;;;;25.70;13.75;;;1.60;99.90;;;;;;5011933;28;20574;-53
2021/01/16 11:04:31;;;;;;;24.73;12.90;;;1.20;99.90;;;;;;5004782;28;20415;-53
2021/01/16 11:06:59;;;;;;;26.80;14.68;;;0.90;99.90;;;;;;5006887;28;20390;-54
2021/01/16 11:09:33;;;;;;;28.88;15.68;;;0.90;99.90;;;;;;5001553;28;20453;-53
2021/01/16 11:12:07;;;;;;;26.67;14.23;;;2.90;99.90;;;;;;4998466;28;20398;-53
2021/01/16 11:14:50;;;;;;;25.83;13.30;;;1.30;99.90;;;;;;5012770;28;20412;-53
2021/01/16 11:17:16;;;;;;;25.73;12.65;;;3.20;99.90;;;;;;5011947;28;20754;-53
2021/01/16 11:19:46;;;;;;;25.83;13.30;;;4.00;99.90;;;;;;5008091;28;20403;-54
2021/01/16 11:22:14;;;;;;;25.60;13.70;;;1.20;99.90;;;;;;5012252;28;20456;-54
2021/01/16 11:24:54;;;;;;;22.83;13.15;;;1.50;99.90;;;;;;5005885;28;20454;-53
2021/01/16 11:27:22;;;;;;;27.08;14.68;;;1.70;99.90;;;;;;5010645;28;20487;-53
2021/01/16 11:29:48;;;;;;;27.90;14.57;;;1.70;99.90;;;;;;5007842;28;20400;-53
2021/01/16 11:32:16;;;;;;;27.48;14.60;;;3.40;99.90;;;;;;5006736;28;21102;-53
2021/01/16 11:35:00;;;;;;;26.70;14.45;;;4.40;99.90;;;;;;5012064;28;20456;-53
2021/01/16 11:37:48;;;;;;;27.50;15.30;;;1.80;99.90;;;;;;5010502;28;20817;-53
2021/01/16 11:40:27;;;;;;;35.92;18.35;;;1.80;99.90;;;;;;5008891;28;20487;-53
2021/01/16 11:43:07;;;;;;;30.17;16.13;;;1.80;99.90;;;;;;5011629;28;21071;-54
2021/01/16 11:45:33;;;;;;;28.17;15.60;;;1.80;99.90;;;;;;5013228;28;20483;-54
2021/01/16 11:48:00;;;;;;;29.52;15.70;;;1.70;99.90;;;;;;5010613;28;20393;-53
2021/01/16 11:50:27;;;;;;;33.40;19.60;;;1.50;99.90;;;;;;5005741;28;20398;-54
2021/01/16 11:52:53;;;;;;;34.97;18.00;;;1.60;99.90;;;;;;5012492;28;20862;-53
2021/01/16 11:55:20;;;;;;;27.42;15.93;;;1.60;99.90;;;;;;5015310;28;20487;-54
2021/01/16 11:57:46;;;;;;;26.20;14.80;;;1.60;99.90;;;;;;5009209;28;20929;-53
2021/01/16 12:00:17;;;;;;;30.83;18.15;;;1.40;99.90;;;;;;5012031;28;20385;-53
2021/01/16 12:02:51;;;;;;;31.20;16.23;;;1.40;99.90;;;;;;5012401;28;20882;-53
2021/01/16 12:05:19;;;;;;;30.35;16.00;;;3.90;99.90;;;;;;5012538;28;20766;-53
2021/01/16 12:07:51;;;;;;;30.17;16.50;;;3.90;99.90;;;;;;5008078;28;20485;-53
2021/01/16 12:10:28;;;;;;;28.77;16.57;;;1.50;99.90;;;;;;5003924;28;20393;-53
2021/01/16 12:12:54;;;;;;;33.53;18.42;;;1.40;99.90;;;;;;5001125;28;20445;-53
2021/01/16 12:15:22;;;;;;;30.88;16.35;;;1.50;99.90;;;;;;5003875;28;20483;-53
2021/01/16 12:17:50;;;;;;;29.15;15.98;;;1.60;99.90;;;;;;5000322;28;20384;-53
2021/01/16 12:20:18;;;;;;;27.60;15.63;;;3.90;99.90;;;;;;5007476;28;20469;-54
2021/01/16 12:22:49;;;;;;;29.48;15.90;;;1.50;99.90;;;;;;5002907;28;21003;-53
2021/01/16 12:25:17;;;;;;;30.65;17.00;;;1.60;99.90;;;;;;5006903;28;20734;-54
2021/01/16 12:27:50;;;;;;;33.45;17.85;;;4.10;99.90;;;;;;5007084;28;20416;-53
2021/01/16 12:30:21;;;;;;;32.17;17.88;;;1.70;99.90;;;;;;5003129;28;20414;-53
2021/01/16 12:32:47;;;;;;;29.85;16.55;;;1.80;99.90;;;;;;5004424;28;20397;-55
2021/01/16 12:35:15;;;;;;;30.40;16.52;;;2.70;99.90;;;;;;5008011;28;20925;-53
2021/01/16 12:37:42;;;;;;;32.40;16.42;;;1.90;99.90;;;;;;5007229;28;20404;-53
2021/01/16 12:40:17;;;;;;;30.20;16.65;;;1.90;99.90;;;;;;5003170;28;20404;-53
2021/01/16 12:42:43;;;;;;;31.98;17.00;;;1.70;99.90;;;;;;5007173;28;20440;-53
2021/01/16 12:45:17;;;;;;;31.23;16.50;;;3.60;99.90;;;;;;5004834;28;20834;-53
2021/01/16 12:47:48;;;;;;;34.22;16.80;;;1.60;99.90;;;;;;5005877;28;20539;-53
2021/01/16 12:50:14;;;;;;;34.35;17.42;;;2.20;99.90;;;;;;5006231;28;20383;-53
2021/01/16 12:52:49;;;;;;;35.92;18.25;;;1.80;99.90;;;;;;5006421;28;20412;-53